Time,TemperatureF,DewpointF,PressureIn,WindDirection,WindDirectionDegrees,WindSpeedMPH,WindSpeedGustMPH,Humidity,HourlyPrecipIn,Conditions,Clouds,dailyrainin,SoftwareType,DateUTC
2013-04-08 00:29:00,45.7,41.8,29.85,NW,325,13.0,21.0,86,0.00,,,0.00,Wunderground v.1.15,2013-04-08 07:29:00,
2013-04-08 00:59:00,45.6,40.7,29.83,WNW,290,17.0,17.0,83,0.00,,,0.00,Wunderground v.1.15,2013-04-08 07:59:00,
2013-04-08 01:29:00,45.4,40.2,29.83,West,277,22.0,27.0,82,0.00,,,0.00,Wunderground v.1.15,2013-04-08 08:29:00,
2013-04-08 01:59:00,45.2,40.7,29.82,NW,311,19.0,22.0,84,0.00,,,0.00,Wunderground v.1.15,2013-04-08 08:59:00,
2013-04-08 02:29:00,44.8,40.3,29.82,WNW,292,19.0,20.0,84,0.00,,,0.00,Wunderground v.1.15,2013-04-08 09:29:00,
2013-04-08 02:59:00,44.2,39.7,29.82,NW,324,13.0,13.0,84,0.00,,,0.00,Wunderground v.1.15,2013-04-08 09:59:00,
2013-04-08 03:29:00,44.3,38.5,29.83,WNW,292,15.0,16.0,80,0.00,,,0.00,Wunderground v.1.15,2013-04-08 10:29:00,
2013-04-08 03:59:00,44.1,38.0,29.84,WNW,292,18.0,18.0,79,0.00,,,0.00,Wunderground v.1.15,2013-04-08 10:59:00,
2013-04-08 04:29:00,44.0,37.3,29.86,NW,323,13.0,13.0,77,0.00,,,0.00,Wunderground v.1.15,2013-04-08 11:29:00,
2013-04-08 04:59:00,43.7,36.3,29.86,NW,304,10.0,10.0,75,0.00,,,0.00,Wunderground v.1.15,2013-04-08 11:59:00,
2013-04-08 05:29:00,43.8,35.4,29.87,NW,309,9.0,9.0,72,0.00,,,0.00,Wunderground v.1.15,2013-04-08 12:29:00,
2013-04-08 05:59:00,43.3,35.6,29.88,NNW,342,8.0,8.0,74,0.00,,,0.00,Wunderground v.1.15,2013-04-08 12:59:00,
2013-04-08 06:29:00,43.2,35.1,29.89,NW,308,8.0,9.0,73,0.00,,,0.00,Wunderground v.1.15,2013-04-08 13:29:00,
2013-04-08 06:59:00,43.3,34.2,29.91,WNW,299,6.0,7.0,70,0.00,,,0.00,Wunderground v.1.15,2013-04-08 13:59:00,
2013-04-08 07:29:00,44.1,34.6,29.93,North,11,5.0,6.0,69,0.00,,,0.00,Wunderground v.1.15,2013-04-08 14:29:00,
2013-04-08 07:59:00,44.9,35.0,29.95,WNW,289,6.0,9.0,68,0.00,,,0.00,Wunderground v.1.15,2013-04-08 14:59:00,
2013-04-08 08:29:00,46.3,35.2,29.95,NNW,328,7.0,7.0,65,0.00,,,0.00,Wunderground v.1.15,2013-04-08 15:29:00,
2013-04-08 08:59:00,48.0,34.8,29.96,NNW,343,5.0,5.0,60,0.00,,,0.00,Wunderground v.1.15,2013-04-08 15:59:00,
2013-04-08 09:29:00,49.4,34.8,29.96,NNW,331,5.0,5.0,57,0.00,,,0.00,Wunderground v.1.15,2013-04-08 16:29:00,
2013-04-08 09:59:00,50.7,34.6,29.97,WNW,298,6.0,10.0,54,0.00,,,0.00,Wunderground v.1.15,2013-04-08 16:59:00,
2013-04-08 10:29:00,52.0,35.9,29.97,NW,308,6.0,7.0,54,0.00,,,0.00,Wunderground v.1.15,2013-04-08 17:29:00,
2013-04-08 10:59:00,54.1,36.9,29.97,WNW,295,4.0,5.0,52,0.00,,,0.00,Wunderground v.1.15,2013-04-08 17:59:00,
2013-04-08 11:29:00,54.6,35.8,29.97,WSW,242,7.0,7.0,49,0.00,,,0.00,Wunderground v.1.15,2013-04-08 18:29:00,
2013-04-08 11:59:00,55.8,36.4,29.98,West,277,8.0,9.0,48,0.00,,,0.00,Wunderground v.1.15,2013-04-08 18:59:00,
2013-04-08 12:29:00,56.3,37.9,29.97,WNW,302,9.0,9.0,50,0.00,,,0.00,Wunderground v.1.15,2013-04-08 19:29:00,
2013-04-08 12:59:00,56.7,38.3,29.97,WNW,290,12.0,14.0,50,0.00,,,0.00,Wunderground v.1.15,2013-04-08 19:59:00,
2013-04-08 13:29:00,59.0,38.2,29.96,WNW,282,9.0,9.0,46,0.00,,,0.00,Wunderground v.1.15,2013-04-08 20:29:00,
2013-04-08 13:59:00,60.4,38.4,29.95,WNW,289,10.0,10.0,44,0.00,,,0.00,Wunderground v.1.15,2013-04-08 20:59:00,
2013-04-08 14:29:00,61.9,40.9,29.95,WNW,286,10.0,11.0,46,0.00,,,0.00,Wunderground v.1.15,2013-04-08 21:29:00,
2013-04-08 14:59:00,60.3,41.0,29.95,WNW,294,14.0,14.0,49,0.00,,,0.00,Wunderground v.1.15,2013-04-08 21:59:00,
2013-04-08 15:29:00,60.7,41.4,29.94,NW,319,12.0,12.0,49,0.00,,,0.00,Wunderground v.1.15,2013-04-08 22:29:00,
2013-04-08 15:59:00,59.5,43.8,29.94,NW,311,11.0,12.0,56,0.00,,,0.00,Wunderground v.1.15,2013-04-08 22:59:00,
2013-04-08 16:29:00,58.3,43.6,29.94,NW,313,11.0,11.0,58,0.00,,,0.00,Wunderground v.1.15,2013-04-08 23:29:00,
2013-04-08 16:59:00,58.4,43.2,29.94,WNW,292,12.0,20.0,57,0.00,,,0.00,Wunderground v.1.15,2013-04-08 23:59:00,
2013-04-08 17:29:00,57.4,42.3,29.94,NW,307,14.0,14.0,57,0.00,,,0.00,Wunderground v.1.15,2013-04-09 00:29:00,
2013-04-08 17:59:00,56.6,43.7,29.94,West,270,10.0,13.0,62,0.00,,,0.00,Wunderground v.1.15,2013-04-09 00:59:00,
2013-04-08 18:29:00,54.8,42.9,29.95,WNW,302,13.0,13.0,64,0.00,,,0.00,Wunderground v.1.15,2013-04-09 01:29:00,
2013-04-08 18:59:00,53.2,42.9,29.96,West,277,12.0,12.0,68,0.00,,,0.00,Wunderground v.1.15,2013-04-09 01:59:00,
2013-04-08 19:29:00,51.6,42.1,29.97,WNW,288,9.0,9.0,70,0.00,,,0.00,Wunderground v.1.15,2013-04-09 02:29:00,
2013-04-08 19:59:00,50.1,41.4,29.98,NNW,327,8.0,8.0,72,0.00,,,0.00,Wunderground v.1.15,2013-04-09 02:59:00,
2013-04-08 20:29:00,49.8,41.1,29.98,NW,309,8.0,11.0,72,0.00,,,0.00,Wunderground v.1.15,2013-04-09 03:29:00,
2013-04-08 20:59:00,49.7,41.0,29.99,NNE,13,7.0,9.0,72,0.00,,,0.00,Wunderground v.1.15,2013-04-09 03:59:00,
2013-04-08 21:29:00,51.0,40.0,30.01,WNW,300,7.0,14.0,66,0.00,,,0.00,Wunderground v.1.15,2013-04-09 04:29:00,
2013-04-08 21:59:00,51.5,39.7,30.02,NW,308,8.0,13.0,64,0.00,,,0.00,Wunderground v.1.15,2013-04-09 04:59:00,
2013-04-08 22:29:00,51.7,39.5,30.03,WNW,289,9.0,14.0,63,0.00,,,0.00,Wunderground v.1.15,2013-04-09 05:29:00,
2013-04-08 22:59:00,50.8,39.5,30.03,NW,307,5.0,7.0,65,0.00,,,0.00,Wunderground v.1.15,2013-04-09 05:59:00,
2013-04-08 23:29:00,50.7,39.7,30.04,ENE,59,5.0,5.0,66,0.00,,,0.00,Wunderground v.1.15,2013-04-09 06:29:00,
2013-04-08 23:59:00,50.5,39.6,30.05,WNW,298,6.0,6.0,66,0.00,,,0.00,Wunderground v.1.15,2013-04-09 06:59:00,